Terminal Aerodrome Forecast
Issued by NWS Albuquerque, NM

Home | Current Version | Previous Version | Text Only | Print | Product List | Glossary On
Versions: 1 2 3 4 5 6 7 8 9 10 11 12 13 14 15
000
FTUS45 KABQ 070542
TAFABQ
TAF
KABQ 070542Z 0706/0806 09020G30KT P6SM VCSH SCT050 BKN100
      TEMPO 0706/0708 -SHRA BKN050
     FM071100 10015G25KT P6SM SCT035 BKN080
     FM071700 14013KT P6SM FEW040 SCT110
     FM072300 17011KT P6SM VCTS SCT060CB BKN120
     FM080200 12015KT P6SM VCSH SCT070 BKN140=

USA.gov is the U.S. government's official web portal to all federal, state and local government web resources and services.